»·PEaware :: N969WR KNYL-KTUS

N969WR :: KNYL-KTUS

FLIGHT INFORMATION

Flight Status: Arrived
Operator: Privately registered:
United States
More flights under this callsign
Pilot: Ion I. (24133)
Aircraft: CANADAIR CL-600 CHALLENGER
(CL60)
More flights by this aircraft type
Origin: KNYL Yuma MCAS/Yuma Intl
United States
Destination: KTUS Tucson Intl
United States
More flights between these airports :: More routes between these airports
Route: MOHAK5 MOHAK J2 GBN DINGO5
File this flight plan on PilotEdge
Remarks:
Altitude:
(Current/Filed)
31,000ft
Speed:
(Current/Filed)
460kts
Departed: 18-Sep-23 04:29 PM
Arrived: 18-Sep-23 05:06 PM
Distance/Time
Traveled:
188nm/0:37
Distance/Time
To Go:
Arrived

Flight Plot

Page will automatically refresh every two minutes.

Flight plan parsing failed; only flown route is shown


Map Options




Map Legend


Flown Route
Filed Route
Departure Airport
Arrival Airport
Navaid (VOR, NDB)
Fix

Horizontal Profiles

Position Reports

Time Latitude Longitude Heading Altitude Ground
Speed
18-Sep-23 16:11 32.660089 -114.610038 176 195ft 0kts
18-Sep-23 16:12 32.660089 -114.610038 176 195ft 0kts
18-Sep-23 16:13 32.660089 -114.610038 176 195ft 0kts
18-Sep-23 16:14 32.660089 -114.610038 176 195ft 0kts
18-Sep-23 16:15 32.660089 -114.610038 176 195ft 0kts
18-Sep-23 16:16 32.660089 -114.610038 176 195ft 0kts
18-Sep-23 16:17 32.660089 -114.610038 176 195ft 0kts
18-Sep-23 16:18 32.660089 -114.610038 176 195ft 0kts
18-Sep-23 16:19 32.660089 -114.610038 176 195ft 0kts
18-Sep-23 16:20 32.660089 -114.610038 176 195ft 0kts
18-Sep-23 16:21 32.660089 -114.610038 176 195ft 0kts
18-Sep-23 16:22 32.660089 -114.610038 176 195ft 0kts
18-Sep-23 16:23 32.659954 -114.610018 156 195ft 3kts
18-Sep-23 16:24 32.658975 -114.608412 90 193ft 11kts
18-Sep-23 16:25 32.660872 -114.605531 359 195ft 13kts
18-Sep-23 16:26 32.665538 -114.605560 0 198ft 15kts
18-Sep-23 16:27 32.667207 -114.605146 87 198ft 0kts
18-Sep-23 16:28 32.660333 -114.603910 179 195ft 117kts
18-Sep-23 16:29 32.616507 -114.611733 222 2476ft 194kts
18-Sep-23 16:30 32.632290 -114.665650 354 5023ft 230kts
18-Sep-23 16:31 32.690019 -114.633929 21 7718ft 234kts
18-Sep-23 16:32 32.752958 -114.607530 31 10349ft 251kts
18-Sep-23 16:33 32.770352 -114.522185 91 13366ft 304kts
18-Sep-23 16:34 32.770827 -114.416335 90 16831ft 332kts
18-Sep-23 16:35 32.772201 -114.297019 90 19092ft 388kts
18-Sep-23 16:36 32.773794 -114.162693 90 21589ft 418kts
18-Sep-23 16:37 32.775358 -114.021708 91 24087ft 436kts
18-Sep-23 16:38 32.789256 -113.873752 81 25879ft 467kts
18-Sep-23 16:39 32.812133 -113.717290 81 27558ft 490kts
18-Sep-23 16:40 32.835197 -113.554026 79 29077ft 509kts
18-Sep-23 16:41 32.859072 -113.384599 79 30505ft 525kts
18-Sep-23 16:42 32.883442 -113.210093 80 31751ft 537kts
18-Sep-23 16:43 32.908428 -113.030290 81 31919ft 558kts
18-Sep-23 16:44 32.932978 -112.847473 80 31925ft 557kts
18-Sep-23 16:45 32.947447 -112.665038 105 31910ft 547kts
18-Sep-23 16:46 32.889402 -112.501956 118 29721ft 519kts
18-Sep-23 16:47 32.830773 -112.349530 118 27216ft 493kts
18-Sep-23 16:48 32.776365 -112.208531 118 24259ft 447kts
18-Sep-23 16:49 32.725595 -112.077932 117 21062ft 419kts
18-Sep-23 16:50 32.677951 -111.955852 117 18163ft 393kts
18-Sep-23 16:51 32.631863 -111.838166 117 16385ft 383kts
18-Sep-23 16:52 32.587166 -111.724456 117 14643ft 372kts
18-Sep-23 16:53 32.542906 -111.615853 127 12861ft 350kts
18-Sep-23 16:54 32.490638 -111.526088 110 11648ft 312kts
18-Sep-23 16:55 32.466539 -111.430411 108 11600ft 280kts
18-Sep-23 16:56 32.444636 -111.344140 109 11053ft 270kts
18-Sep-23 16:57 32.401697 -111.275723 138 9823ft 258kts
18-Sep-23 16:58 32.350934 -111.216057 137 8583ft 254kts
18-Sep-23 16:59 32.300929 -111.156965 138 7349ft 247kts
18-Sep-23 17:00 32.253757 -111.101266 138 6226ft 228kts
18-Sep-23 17:01 32.211752 -111.050838 141 5125ft 174kts
18-Sep-23 17:02 32.177882 -111.011361 142 4094ft 170kts
18-Sep-23 17:03 32.144935 -110.973214 139 3267ft 163kts
18-Sep-23 17:04 32.115176 -110.938311 138 2609ft 82kts
18-Sep-23 17:05 32.112268 -110.932366 314 2621ft 12kts
18-Sep-23 17:06 32.115784 -110.936488 315 2611ft 24kts
18-Sep-23 17:07 32.121493 -110.943197 315 2590ft 13kts
18-Sep-23 17:08 32.124963 -110.947215 341 2576ft 4kts
18-Sep-23 17:09 32.126868 -110.945044 69 2573ft 8kts
18-Sep-23 17:10 32.126791 -110.944259 133 2575ft 0kts
18-Sep-23 17:11 32.126791 -110.944259 133 2575ft 0kts
18-Sep-23 17:12 32.126791 -110.944259 133 2575ft 0kts

Navigation Log

Ident Type
Flight plan parsing failed, navigation log unavailable